sensor_id;sensor_type;location;lat;lon;timestamp;P1;durP1;ratioP1;P2;durP2;ratioP2
10295;SDS011;5193;51.032;6.356;2024-02-15T00:01:27;8.43;;;4.13;;
10295;SDS011;5193;51.032;6.356;2024-02-15T00:03:52;5.97;;;4.03;;
10295;SDS011;5193;51.032;6.356;2024-02-15T00:06:20;9.83;;;4.40;;
10295;SDS011;5193;51.032;6.356;2024-02-15T00:08:49;7.80;;;4.27;;
10295;SDS011;5193;51.032;6.356;2024-02-15T00:11:20;10.63;;;5.20;;
10295;SDS011;5193;51.032;6.356;2024-02-15T00:13:48;8.20;;;4.20;;
10295;SDS011;5193;51.032;6.356;2024-02-15T00:16:15;9.97;;;4.10;;
10295;SDS011;5193;51.032;6.356;2024-02-15T00:18:42;11.40;;;4.30;;
10295;SDS011;5193;51.032;6.356;2024-02-15T00:21:08;13.53;;;4.27;;
10295;SDS011;5193;51.032;6.356;2024-02-15T00:23:33;8.73;;;4.07;;
10295;SDS011;5193;51.032;6.356;2024-02-15T00:25:59;10.60;;;4.23;;
10295;SDS011;5193;51.032;6.356;2024-02-15T00:28:25;8.00;;;3.87;;
10295;SDS011;5193;51.032;6.356;2024-02-15T00:30:52;14.20;;;4.43;;
10295;SDS011;5193;51.032;6.356;2024-02-15T00:33:18;16.77;;;3.73;;
10295;SDS011;5193;51.032;6.356;2024-02-15T00:35:44;15.30;;;4.03;;
10295;SDS011;5193;51.032;6.356;2024-02-15T00:38:14;11.53;;;3.97;;
10295;SDS011;5193;51.032;6.356;2024-02-15T00:40:41;11.00;;;3.83;;
10295;SDS011;5193;51.032;6.356;2024-02-15T00:43:08;7.97;;;4.00;;
10295;SDS011;5193;51.032;6.356;2024-02-15T00:45:40;15.13;;;4.37;;
10295;SDS011;5193;51.032;6.356;2024-02-15T00:48:06;17.07;;;4.30;;
10295;SDS011;5193;51.032;6.356;2024-02-15T00:50:32;11.93;;;4.33;;
10295;SDS011;5193;51.032;6.356;2024-02-15T00:52:58;10.80;;;4.00;;
10295;SDS011;5193;51.032;6.356;2024-02-15T00:55:24;10.07;;;4.17;;
10295;SDS011;5193;51.032;6.356;2024-02-15T00:57:55;10.77;;;4.20;;
10295;SDS011;5193;51.032;6.356;2024-02-15T01:00:23;9.17;;;3.87;;
10295;SDS011;5193;51.032;6.356;2024-02-15T01:02:52;10.23;;;3.73;;
10295;SDS011;5193;51.032;6.356;2024-02-15T01:05:18;9.63;;;4.00;;
10295;SDS011;5193;51.032;6.356;2024-02-15T01:07:48;7.70;;;4.00;;
10295;SDS011;5193;51.032;6.356;2024-02-15T01:10:14;12.67;;;4.10;;
10295;SDS011;5193;51.032;6.356;2024-02-15T01:12:40;13.07;;;4.23;;
10295;SDS011;5193;51.032;6.356;2024-02-15T01:15:05;10.37;;;4.07;;
10295;SDS011;5193;51.032;6.356;2024-02-15T01:17:31;11.73;;;3.87;;
10295;SDS011;5193;51.032;6.356;2024-02-15T01:19:57;8.13;;;3.53;;
10295;SDS011;5193;51.032;6.356;2024-02-15T01:22:22;13.27;;;4.47;;
10295;SDS011;5193;51.032;6.356;2024-02-15T01:24:50;10.43;;;4.10;;
10295;SDS011;5193;51.032;6.356;2024-02-15T01:27:15;12.17;;;4.80;;
10295;SDS011;5193;51.032;6.356;2024-02-15T01:29:42;7.80;;;3.80;;
10295;SDS011;5193;51.032;6.356;2024-02-15T01:32:07;9.30;;;3.70;;
10295;SDS011;5193;51.032;6.356;2024-02-15T01:34:33;10.40;;;4.20;;
10295;SDS011;5193;51.032;6.356;2024-02-15T01:36:59;7.50;;;4.00;;
10295;SDS011;5193;51.032;6.356;2024-02-15T01:39:25;16.27;;;4.63;;
10295;SDS011;5193;51.032;6.356;2024-02-15T01:41:50;10.87;;;4.40;;
10295;SDS011;5193;51.032;6.356;2024-02-15T01:44:17;16.97;;;4.90;;
10295;SDS011;5193;51.032;6.356;2024-02-15T01:46:45;8.23;;;3.80;;
10295;SDS011;5193;51.032;6.356;2024-02-15T01:49:12;5.33;;;3.20;;
10295;SDS011;5193;51.032;6.356;2024-02-15T01:51:38;10.03;;;4.07;;
10295;SDS011;5193;51.032;6.356;2024-02-15T01:54:08;12.10;;;3.87;;
10295;SDS011;5193;51.032;6.356;2024-02-15T01:56:34;11.37;;;4.33;;
10295;SDS011;5193;51.032;6.356;2024-02-15T01:59:01;9.40;;;4.13;;
10295;SDS011;5193;51.032;6.356;2024-02-15T02:01:28;10.30;;;3.70;;
10295;SDS011;5193;51.032;6.356;2024-02-15T02:03:57;9.93;;;3.77;;
10295;SDS011;5193;51.032;6.356;2024-02-15T02:06:23;6.97;;;3.80;;
10295;SDS011;5193;51.032;6.356;2024-02-15T02:08:49;11.57;;;3.50;;
10295;SDS011;5193;51.032;6.356;2024-02-15T02:11:15;9.93;;;4.03;;
10295;SDS011;5193;51.032;6.356;2024-02-15T02:13:41;7.47;;;3.60;;
10295;SDS011;5193;51.032;6.356;2024-02-15T02:19:05;11.87;;;4.07;;
10295;SDS011;5193;51.032;6.356;2024-02-15T02:21:37;9.30;;;3.40;;
10295;SDS011;5193;51.032;6.356;2024-02-15T02:24:06;13.90;;;4.07;;
10295;SDS011;5193;51.032;6.356;2024-02-15T02:26:39;7.90;;;3.30;;
10295;SDS011;5193;51.032;6.356;2024-02-15T02:29:05;14.03;;;3.37;;
10295;SDS011;5193;51.032;6.356;2024-02-15T02:31:32;10.03;;;3.23;;
10295;SDS011;5193;51.032;6.356;2024-02-15T02:34:01;10.90;;;3.33;;
10295;SDS011;5193;51.032;6.356;2024-02-15T02:36:28;10.53;;;2.73;;
10295;SDS011;5193;51.032;6.356;2024-02-15T02:38:54;8.87;;;2.93;;
10295;SDS011;5193;51.032;6.356;2024-02-15T02:41:20;6.33;;;2.77;;
10295;SDS011;5193;51.032;6.356;2024-02-15T02:43:46;5.97;;;2.80;;
10295;SDS011;5193;51.032;6.356;2024-02-15T02:46:12;9.50;;;2.90;;
10295;SDS011;5193;51.032;6.356;2024-02-15T02:48:38;12.70;;;2.77;;
10295;SDS011;5193;51.032;6.356;2024-02-15T02:51:04;6.73;;;3.10;;
10295;SDS011;5193;51.032;6.356;2024-02-15T02:53:32;8.50;;;2.80;;
10295;SDS011;5193;51.032;6.356;2024-02-15T02:55:59;8.83;;;2.63;;
10295;SDS011;5193;51.032;6.356;2024-02-15T02:58:25;10.30;;;2.50;;
10295;SDS011;5193;51.032;6.356;2024-02-15T03:00:51;8.70;;;2.50;;
10295;SDS011;5193;51.032;6.356;2024-02-15T03:03:20;13.27;;;3.03;;
10295;SDS011;5193;51.032;6.356;2024-02-15T03:05:50;9.43;;;2.63;;
10295;SDS011;5193;51.032;6.356;2024-02-15T03:08:15;17.73;;;2.37;;
10295;SDS011;5193;51.032;6.356;2024-02-15T03:10:43;7.47;;;2.40;;
10295;SDS011;5193;51.032;6.356;2024-02-15T03:13:09;6.63;;;2.47;;
10295;SDS011;5193;51.032;6.356;2024-02-15T03:15:35;17.07;;;2.40;;
10295;SDS011;5193;51.032;6.356;2024-02-15T03:18:01;7.87;;;2.43;;
10295;SDS011;5193;51.032;6.356;2024-02-15T03:20:31;8.57;;;2.17;;
10295;SDS011;5193;51.032;6.356;2024-02-15T03:22:59;5.43;;;2.20;;
10295;SDS011;5193;51.032;6.356;2024-02-15T03:25:26;9.37;;;2.57;;
10295;SDS011;5193;51.032;6.356;2024-02-15T03:27:54;8.60;;;1.87;;
10295;SDS011;5193;51.032;6.356;2024-02-15T03:30:27;5.73;;;1.90;;
10295;SDS011;5193;51.032;6.356;2024-02-15T03:32:55;9.93;;;2.20;;
10295;SDS011;5193;51.032;6.356;2024-02-15T03:35:22;12.07;;;2.33;;
10295;SDS011;5193;51.032;6.356;2024-02-15T03:37:49;7.67;;;2.03;;
10295;SDS011;5193;51.032;6.356;2024-02-15T03:40:16;9.80;;;1.93;;
10295;SDS011;5193;51.032;6.356;2024-02-15T03:42:43;9.27;;;2.10;;
10295;SDS011;5193;51.032;6.356;2024-02-15T03:45:08;10.07;;;2.17;;
10295;SDS011;5193;51.032;6.356;2024-02-15T03:47:36;5.37;;;2.00;;
10295;SDS011;5193;51.032;6.356;2024-02-15T03:50:05;2.53;;;1.80;;
10295;SDS011;5193;51.032;6.356;2024-02-15T03:52:33;6.17;;;1.90;;
10295;SDS011;5193;51.032;6.356;2024-02-15T03:54:59;10.67;;;2.57;;
10295;SDS011;5193;51.032;6.356;2024-02-15T03:57:25;7.23;;;2.10;;
10295;SDS011;5193;51.032;6.356;2024-02-15T03:59:51;8.07;;;2.40;;
10295;SDS011;5193;51.032;6.356;2024-02-15T04:02:21;6.90;;;2.17;;
10295;SDS011;5193;51.032;6.356;2024-02-15T04:04:48;6.93;;;2.13;;
10295;SDS011;5193;51.032;6.356;2024-02-15T04:07:15;4.37;;;1.90;;
10295;SDS011;5193;51.032;6.356;2024-02-15T04:09:45;7.87;;;2.00;;
10295;SDS011;5193;51.032;6.356;2024-02-15T04:12:11;9.57;;;2.50;;
10295;SDS011;5193;51.032;6.356;2024-02-15T04:14:37;6.07;;;2.07;;
10295;SDS011;5193;51.032;6.356;2024-02-15T04:17:11;8.80;;;1.80;;
10295;SDS011;5193;51.032;6.356;2024-02-15T04:19:47;7.17;;;2.00;;
10295;SDS011;5193;51.032;6.356;2024-02-15T04:22:14;6.03;;;1.70;;
10295;SDS011;5193;51.032;6.356;2024-02-15T04:24:41;8.00;;;1.83;;
10295;SDS011;5193;51.032;6.356;2024-02-15T04:27:12;9.07;;;2.13;;
10295;SDS011;5193;51.032;6.356;2024-02-15T04:29:42;7.30;;;2.10;;
10295;SDS011;5193;51.032;6.356;2024-02-15T04:32:10;7.07;;;2.00;;
10295;SDS011;5193;51.032;6.356;2024-02-15T04:34:37;7.17;;;1.87;;
10295;SDS011;5193;51.032;6.356;2024-02-15T04:37:05;7.53;;;2.20;;
10295;SDS011;5193;51.032;6.356;2024-02-15T04:39:37;7.00;;;2.10;;
10295;SDS011;5193;51.032;6.356;2024-02-15T04:42:03;7.63;;;1.73;;
10295;SDS011;5193;51.032;6.356;2024-02-15T04:44:37;8.17;;;1.93;;
10295;SDS011;5193;51.032;6.356;2024-02-15T04:47:05;7.50;;;2.47;;
10295;SDS011;5193;51.032;6.356;2024-02-15T04:49:31;4.53;;;1.90;;
10295;SDS011;5193;51.032;6.356;2024-02-15T04:51:57;5.87;;;1.83;;
10295;SDS011;5193;51.032;6.356;2024-02-15T04:54:32;5.83;;;1.77;;
10295;SDS011;5193;51.032;6.356;2024-02-15T04:56:58;6.77;;;2.10;;
10295;SDS011;5193;51.032;6.356;2024-02-15T04:59:24;6.90;;;2.00;;
10295;SDS011;5193;51.032;6.356;2024-02-15T05:01:54;7.83;;;1.90;;
10295;SDS011;5193;51.032;6.356;2024-02-15T05:04:22;6.73;;;2.30;;
10295;SDS011;5193;51.032;6.356;2024-02-15T05:06:51;5.17;;;2.13;;
10295;SDS011;5193;51.032;6.356;2024-02-15T05:09:18;4.73;;;2.07;;
10295;SDS011;5193;51.032;6.356;2024-02-15T05:11:46;11.77;;;2.33;;
10295;SDS011;5193;51.032;6.356;2024-02-15T05:14:16;3.40;;;1.77;;
10295;SDS011;5193;51.032;6.356;2024-02-15T05:16:44;7.13;;;1.93;;
10295;SDS011;5193;51.032;6.356;2024-02-15T05:19:19;7.03;;;2.00;;
10295;SDS011;5193;51.032;6.356;2024-02-15T05:21:46;6.47;;;2.00;;
10295;SDS011;5193;51.032;6.356;2024-02-15T05:24:15;8.37;;;1.97;;
10295;SDS011;5193;51.032;6.356;2024-02-15T05:26:42;11.30;;;2.77;;
10295;SDS011;5193;51.032;6.356;2024-02-15T05:32:11;5.93;;;1.93;;
10295;SDS011;5193;51.032;6.356;2024-02-15T05:34:38;8.30;;;2.40;;
10295;SDS011;5193;51.032;6.356;2024-02-15T05:37:05;6.63;;;2.20;;
10295;SDS011;5193;51.032;6.356;2024-02-15T05:39:32;10.57;;;2.20;;
10295;SDS011;5193;51.032;6.356;2024-02-15T05:42:00;6.53;;;2.13;;
10295;SDS011;5193;51.032;6.356;2024-02-15T05:44:28;6.70;;;2.17;;
10295;SDS011;5193;51.032;6.356;2024-02-15T05:46:54;11.00;;;2.80;;
10295;SDS011;5193;51.032;6.356;2024-02-15T05:49:19;10.53;;;2.57;;
10295;SDS011;5193;51.032;6.356;2024-02-15T05:51:48;7.10;;;2.57;;
10295;SDS011;5193;51.032;6.356;2024-02-15T05:54:14;7.83;;;2.50;;
10295;SDS011;5193;51.032;6.356;2024-02-15T05:56:43;6.53;;;2.67;;
10295;SDS011;5193;51.032;6.356;2024-02-15T05:59:09;6.10;;;2.07;;
10295;SDS011;5193;51.032;6.356;2024-02-15T06:01:39;6.07;;;2.33;;
10295;SDS011;5193;51.032;6.356;2024-02-15T06:04:06;8.20;;;2.90;;
10295;SDS011;5193;51.032;6.356;2024-02-15T06:06:40;10.53;;;2.90;;
10295;SDS011;5193;51.032;6.356;2024-02-15T06:09:05;8.87;;;2.30;;
10295;SDS011;5193;51.032;6.356;2024-02-15T06:11:31;5.67;;;2.90;;
10295;SDS011;5193;51.032;6.356;2024-02-15T06:13:57;4.57;;;2.23;;
10295;SDS011;5193;51.032;6.356;2024-02-15T06:16:24;8.10;;;2.60;;
10295;SDS011;5193;51.032;6.356;2024-02-15T06:18:50;6.50;;;2.17;;
10295;SDS011;5193;51.032;6.356;2024-02-15T06:21:18;7.50;;;2.07;;
10295;SDS011;5193;51.032;6.356;2024-02-15T06:23:45;7.07;;;2.50;;
10295;SDS011;5193;51.032;6.356;2024-02-15T06:26:13;11.00;;;2.40;;
10295;SDS011;5193;51.032;6.356;2024-02-15T06:28:39;6.60;;;2.50;;
10295;SDS011;5193;51.032;6.356;2024-02-15T06:31:28;9.67;;;2.23;;
10295;SDS011;5193;51.032;6.356;2024-02-15T06:34:12;6.33;;;2.53;;
10295;SDS011;5193;51.032;6.356;2024-02-15T06:36:57;10.97;;;2.67;;
10295;SDS011;5193;51.032;6.356;2024-02-15T06:39:41;6.87;;;2.63;;
10295;SDS011;5193;51.032;6.356;2024-02-15T06:42:10;4.57;;;2.30;;
10295;SDS011;5193;51.032;6.356;2024-02-15T06:44:41;6.70;;;2.50;;
10295;SDS011;5193;51.032;6.356;2024-02-15T06:47:11;4.00;;;2.30;;
10295;SDS011;5193;51.032;6.356;2024-02-15T06:49:38;10.50;;;3.37;;
10295;SDS011;5193;51.032;6.356;2024-02-15T06:52:11;6.20;;;2.73;;
10295;SDS011;5193;51.032;6.356;2024-02-15T06:54:39;10.70;;;3.30;;
10295;SDS011;5193;51.032;6.356;2024-02-15T06:57:05;5.17;;;2.33;;
10295;SDS011;5193;51.032;6.356;2024-02-15T06:59:32;8.03;;;2.60;;
10295;SDS011;5193;51.032;6.356;2024-02-15T07:01:58;5.37;;;2.57;;
10295;SDS011;5193;51.032;6.356;2024-02-15T07:04:24;5.90;;;2.73;;
10295;SDS011;5193;51.032;6.356;2024-02-15T07:06:52;10.23;;;2.93;;
10295;SDS011;5193;51.032;6.356;2024-02-15T07:09:19;9.10;;;2.50;;
10295;SDS011;5193;51.032;6.356;2024-02-15T07:11:48;7.70;;;2.80;;
10295;SDS011;5193;51.032;6.356;2024-02-15T07:14:13;12.53;;;3.17;;
10295;SDS011;5193;51.032;6.356;2024-02-15T07:16:43;9.47;;;2.57;;
10295;SDS011;5193;51.032;6.356;2024-02-15T07:19:10;8.60;;;4.00;;
10295;SDS011;5193;51.032;6.356;2024-02-15T07:21:36;6.67;;;2.73;;
10295;SDS011;5193;51.032;6.356;2024-02-15T07:24:03;6.63;;;2.90;;
10295;SDS011;5193;51.032;6.356;2024-02-15T07:26:29;7.93;;;3.00;;
10295;SDS011;5193;51.032;6.356;2024-02-15T07:28:55;6.30;;;2.80;;
10295;SDS011;5193;51.032;6.356;2024-02-15T07:31:22;8.40;;;2.67;;
10295;SDS011;5193;51.032;6.356;2024-02-15T07:33:48;5.70;;;2.60;;
10295;SDS011;5193;51.032;6.356;2024-02-15T07:36:22;14.00;;;3.17;;
10295;SDS011;5193;51.032;6.356;2024-02-15T07:38:49;10.47;;;3.13;;
10295;SDS011;5193;51.032;6.356;2024-02-15T07:41:16;10.20;;;3.07;;
10295;SDS011;5193;51.032;6.356;2024-02-15T07:43:43;8.80;;;2.93;;
10295;SDS011;5193;51.032;6.356;2024-02-15T07:46:11;6.43;;;2.70;;
10295;SDS011;5193;51.032;6.356;2024-02-15T07:48:38;7.17;;;2.63;;
10295;SDS011;5193;51.032;6.356;2024-02-15T07:51:04;10.27;;;2.77;;
10295;SDS011;5193;51.032;6.356;2024-02-15T07:53:35;8.37;;;2.73;;
10295;SDS011;5193;51.032;6.356;2024-02-15T07:56:00;6.87;;;2.80;;
10295;SDS011;5193;51.032;6.356;2024-02-15T07:58:26;9.93;;;3.10;;
10295;SDS011;5193;51.032;6.356;2024-02-15T08:00:52;11.40;;;3.20;;
10295;SDS011;5193;51.032;6.356;2024-02-15T08:03:18;5.90;;;2.60;;
10295;SDS011;5193;51.032;6.356;2024-02-15T08:05:43;4.67;;;2.53;;
10295;SDS011;5193;51.032;6.356;2024-02-15T08:08:09;9.30;;;3.03;;
10295;SDS011;5193;51.032;6.356;2024-02-15T08:10:35;10.17;;;2.60;;
10295;SDS011;5193;51.032;6.356;2024-02-15T08:13:00;6.43;;;3.30;;
10295;SDS011;5193;51.032;6.356;2024-02-15T08:15:26;11.90;;;3.03;;
10295;SDS011;5193;51.032;6.356;2024-02-15T08:17:54;9.37;;;2.57;;
10295;SDS011;5193;51.032;6.356;2024-02-15T08:20:20;10.37;;;3.00;;
10295;SDS011;5193;51.032;6.356;2024-02-15T08:22:49;8.40;;;2.37;;
10295;SDS011;5193;51.032;6.356;2024-02-15T08:25:14;14.10;;;2.73;;
10295;SDS011;5193;51.032;6.356;2024-02-15T08:27:41;6.53;;;2.27;;
10295;SDS011;5193;51.032;6.356;2024-02-15T08:30:12;7.50;;;2.33;;
10295;SDS011;5193;51.032;6.356;2024-02-15T08:32:39;7.23;;;2.60;;
10295;SDS011;5193;51.032;6.356;2024-02-15T08:35:06;8.60;;;1.87;;
10295;SDS011;5193;51.032;6.356;2024-02-15T08:37:33;7.63;;;2.20;;
10295;SDS011;5193;51.032;6.356;2024-02-15T08:40:00;10.13;;;2.30;;
10295;SDS011;5193;51.032;6.356;2024-02-15T08:42:39;8.23;;;2.63;;
10295;SDS011;5193;51.032;6.356;2024-02-15T08:45:06;5.33;;;2.83;;
10295;SDS011;5193;51.032;6.356;2024-02-15T08:47:38;5.63;;;2.67;;
10295;SDS011;5193;51.032;6.356;2024-02-15T08:50:05;4.07;;;2.30;;
10295;SDS011;5193;51.032;6.356;2024-02-15T08:52:32;5.00;;;2.17;;
10295;SDS011;5193;51.032;6.356;2024-02-15T08:54:57;5.73;;;2.30;;
10295;SDS011;5193;51.032;6.356;2024-02-15T08:57:24;9.17;;;2.93;;
10295;SDS011;5193;51.032;6.356;2024-02-15T08:59:49;9.93;;;2.80;;
10295;SDS011;5193;51.032;6.356;2024-02-15T09:02:17;5.93;;;2.10;;
10295;SDS011;5193;51.032;6.356;2024-02-15T09:04:43;10.57;;;2.40;;
10295;SDS011;5193;51.032;6.356;2024-02-15T09:07:08;8.63;;;2.33;;
10295;SDS011;5193;51.032;6.356;2024-02-15T09:09:36;8.63;;;2.00;;
10295;SDS011;5193;51.032;6.356;2024-02-15T09:12:04;9.03;;;3.30;;
10295;SDS011;5193;51.032;6.356;2024-02-15T09:14:31;6.00;;;2.20;;
10295;SDS011;5193;51.032;6.356;2024-02-15T09:16:58;10.87;;;2.23;;
10295;SDS011;5193;51.032;6.356;2024-02-15T09:19:24;4.13;;;2.13;;
10295;SDS011;5193;51.032;6.356;2024-02-15T09:21:50;9.70;;;2.30;;
10295;SDS011;5193;51.032;6.356;2024-02-15T09:24:15;9.40;;;2.60;;
10295;SDS011;5193;51.032;6.356;2024-02-15T09:26:41;8.67;;;2.50;;
10295;SDS011;5193;51.032;6.356;2024-02-15T09:29:09;3.90;;;2.20;;
10295;SDS011;5193;51.032;6.356;2024-02-15T09:31:34;13.33;;;2.47;;
10295;SDS011;5193;51.032;6.356;2024-02-15T09:34:04;6.77;;;2.23;;
10295;SDS011;5193;51.032;6.356;2024-02-15T09:36:38;5.70;;;2.50;;
10295;SDS011;5193;51.032;6.356;2024-02-15T09:39:04;4.23;;;1.90;;
10295;SDS011;5193;51.032;6.356;2024-02-15T09:41:37;5.47;;;2.07;;
10295;SDS011;5193;51.032;6.356;2024-02-15T09:44:03;4.70;;;2.23;;
10295;SDS011;5193;51.032;6.356;2024-02-15T09:46:29;5.10;;;2.43;;
10295;SDS011;5193;51.032;6.356;2024-02-15T09:49:00;4.23;;;2.40;;
10295;SDS011;5193;51.032;6.356;2024-02-15T09:51:28;8.33;;;2.60;;
10295;SDS011;5193;51.032;6.356;2024-02-15T09:53:57;8.23;;;2.33;;
10295;SDS011;5193;51.032;6.356;2024-02-15T09:56:24;3.47;;;2.00;;
10295;SDS011;5193;51.032;6.356;2024-02-15T09:58:51;8.67;;;2.60;;
10295;SDS011;5193;51.032;6.356;2024-02-15T10:01:16;4.83;;;2.37;;
10295;SDS011;5193;51.032;6.356;2024-02-15T10:03:45;4.90;;;1.90;;
10295;SDS011;5193;51.032;6.356;2024-02-15T10:06:16;5.50;;;2.13;;
10295;SDS011;5193;51.032;6.356;2024-02-15T10:08:43;5.27;;;2.03;;
10295;SDS011;5193;51.032;6.356;2024-02-15T10:11:09;4.10;;;1.73;;
10295;SDS011;5193;51.032;6.356;2024-02-15T10:13:35;3.47;;;1.97;;
10295;SDS011;5193;51.032;6.356;2024-02-15T10:18:40;4.87;;;2.13;;
10295;SDS011;5193;51.032;6.356;2024-02-15T10:21:06;3.37;;;2.00;;
10295;SDS011;5193;51.032;6.356;2024-02-15T10:23:31;4.73;;;1.90;;
10295;SDS011;5193;51.032;6.356;2024-02-15T10:25:57;3.60;;;1.47;;
10295;SDS011;5193;51.032;6.356;2024-02-15T10:28:23;5.37;;;2.17;;
10295;SDS011;5193;51.032;6.356;2024-02-15T10:30:49;3.17;;;1.70;;
10295;SDS011;5193;51.032;6.356;2024-02-15T10:33:27;5.13;;;1.60;;
10295;SDS011;5193;51.032;6.356;2024-02-15T10:36:09;5.17;;;1.83;;
10295;SDS011;5193;51.032;6.356;2024-02-15T10:38:41;4.40;;;1.70;;
10295;SDS011;5193;51.032;6.356;2024-02-15T10:41:07;3.90;;;1.33;;
10295;SDS011;5193;51.032;6.356;2024-02-15T10:43:33;4.73;;;1.73;;
10295;SDS011;5193;51.032;6.356;2024-02-15T10:46:02;2.87;;;1.40;;
10295;SDS011;5193;51.032;6.356;2024-02-15T10:48:28;3.80;;;1.80;;
10295;SDS011;5193;51.032;6.356;2024-02-15T10:50:55;1.93;;;1.60;;
10295;SDS011;5193;51.032;6.356;2024-02-15T10:53:27;3.07;;;1.40;;
10295;SDS011;5193;51.032;6.356;2024-02-15T10:58:21;5.57;;;1.80;;
10295;SDS011;5193;51.032;6.356;2024-02-15T11:00:51;3.93;;;1.90;;
10295;SDS011;5193;51.032;6.356;2024-02-15T11:03:24;5.93;;;1.90;;
10295;SDS011;5193;51.032;6.356;2024-02-15T11:05:55;4.83;;;1.80;;
10295;SDS011;5193;51.032;6.356;2024-02-15T11:08:25;4.40;;;1.57;;
10295;SDS011;5193;51.032;6.356;2024-02-15T11:10:52;5.20;;;1.60;;
10295;SDS011;5193;51.032;6.356;2024-02-15T11:13:20;4.13;;;1.57;;
10295;SDS011;5193;51.032;6.356;2024-02-15T11:15:46;4.93;;;1.33;;
10295;SDS011;5193;51.032;6.356;2024-02-15T11:18:41;4.90;;;1.40;;
10295;SDS011;5193;51.032;6.356;2024-02-15T11:21:23;5.53;;;1.73;;
10295;SDS011;5193;51.032;6.356;2024-02-15T11:24:30;5.07;;;1.57;;
10295;SDS011;5193;51.032;6.356;2024-02-15T11:27:08;3.40;;;1.30;;
10295;SDS011;5193;51.032;6.356;2024-02-15T11:32:35;4.97;;;1.43;;
10295;SDS011;5193;51.032;6.356;2024-02-15T11:35:05;4.27;;;1.37;;
10295;SDS011;5193;51.032;6.356;2024-02-15T11:40:20;4.07;;;1.47;;
10295;SDS011;5193;51.032;6.356;2024-02-15T11:42:59;1.67;;;1.00;;
10295;SDS011;5193;51.032;6.356;2024-02-15T11:45:29;2.63;;;1.23;;
10295;SDS011;5193;51.032;6.356;2024-02-15T11:48:03;3.50;;;1.20;;
10295;SDS011;5193;51.032;6.356;2024-02-15T11:50:36;3.20;;;1.30;;
10295;SDS011;5193;51.032;6.356;2024-02-15T11:53:03;3.40;;;1.23;;
10295;SDS011;5193;51.032;6.356;2024-02-15T11:55:30;3.63;;;1.20;;
10295;SDS011;5193;51.032;6.356;2024-02-15T11:57:58;2.83;;;1.40;;
10295;SDS011;5193;51.032;6.356;2024-02-15T12:00:41;2.63;;;1.20;;
10295;SDS011;5193;51.032;6.356;2024-02-15T12:03:27;2.70;;;1.20;;
10295;SDS011;5193;51.032;6.356;2024-02-15T12:06:11;2.77;;;1.20;;
10295;SDS011;5193;51.032;6.356;2024-02-15T12:08:55;4.07;;;1.20;;
10295;SDS011;5193;51.032;6.356;2024-02-15T12:11:39;2.60;;;1.10;;
10295;SDS011;5193;51.032;6.356;2024-02-15T12:14:24;4.83;;;1.73;;
10295;SDS011;5193;51.032;6.356;2024-02-15T12:17:09;1.97;;;0.93;;
10295;SDS011;5193;51.032;6.356;2024-02-15T12:19:55;3.37;;;1.00;;
10295;SDS011;5193;51.032;6.356;2024-02-15T12:22:33;3.10;;;1.33;;
10295;SDS011;5193;51.032;6.356;2024-02-15T12:25:05;4.07;;;1.40;;
10295;SDS011;5193;51.032;6.356;2024-02-15T12:27:39;1.77;;;0.90;;
10295;SDS011;5193;51.032;6.356;2024-02-15T12:30:07;2.90;;;1.40;;
10295;SDS011;5193;51.032;6.356;2024-02-15T12:32:37;3.63;;;1.60;;
10295;SDS011;5193;51.032;6.356;2024-02-15T12:35:10;2.77;;;1.20;;
10295;SDS011;5193;51.032;6.356;2024-02-15T12:37:47;1.90;;;1.00;;
10295;SDS011;5193;51.032;6.356;2024-02-15T12:40:33;4.00;;;1.60;;
10295;SDS011;5193;51.032;6.356;2024-02-15T12:43:07;3.67;;;1.37;;
10295;SDS011;5193;51.032;6.356;2024-02-15T12:45:38;2.63;;;1.40;;
10295;SDS011;5193;51.032;6.356;2024-02-15T12:48:08;1.73;;;1.20;;
10295;SDS011;5193;51.032;6.356;2024-02-15T12:50:37;2.60;;;1.40;;
10295;SDS011;5193;51.032;6.356;2024-02-15T12:53:06;3.57;;;1.83;;
10295;SDS011;5193;51.032;6.356;2024-02-15T12:55:33;3.40;;;1.70;;
10295;SDS011;5193;51.032;6.356;2024-02-15T12:58:01;3.33;;;1.57;;
10295;SDS011;5193;51.032;6.356;2024-02-15T13:00:34;3.77;;;1.60;;
10295;SDS011;5193;51.032;6.356;2024-02-15T13:03:03;1.53;;;0.97;;
10295;SDS011;5193;51.032;6.356;2024-02-15T13:05:30;3.97;;;1.20;;
10295;SDS011;5193;51.032;6.356;2024-02-15T13:07:56;1.87;;;0.77;;
10295;SDS011;5193;51.032;6.356;2024-02-15T13:10:31;2.13;;;0.77;;
10295;SDS011;5193;51.032;6.356;2024-02-15T13:12:57;2.37;;;0.93;;
10295;SDS011;5193;51.032;6.356;2024-02-15T13:15:23;2.80;;;1.00;;
10295;SDS011;5193;51.032;6.356;2024-02-15T13:17:55;2.20;;;0.80;;
10295;SDS011;5193;51.032;6.356;2024-02-15T13:20:21;4.73;;;1.00;;
10295;SDS011;5193;51.032;6.356;2024-02-15T13:22:57;3.20;;;1.10;;
10295;SDS011;5193;51.032;6.356;2024-02-15T13:25:40;3.80;;;1.10;;
10295;SDS011;5193;51.032;6.356;2024-02-15T13:28:08;5.73;;;1.10;;
10295;SDS011;5193;51.032;6.356;2024-02-15T13:30:35;3.10;;;0.93;;
10295;SDS011;5193;51.032;6.356;2024-02-15T13:33:01;1.40;;;0.87;;
10295;SDS011;5193;51.032;6.356;2024-02-15T13:35:27;4.10;;;1.03;;
10295;SDS011;5193;51.032;6.356;2024-02-15T13:37:54;4.43;;;1.30;;
10295;SDS011;5193;51.032;6.356;2024-02-15T13:40:23;1.63;;;0.87;;
10295;SDS011;5193;51.032;6.356;2024-02-15T13:42:51;4.30;;;1.17;;
10295;SDS011;5193;51.032;6.356;2024-02-15T13:45:22;2.43;;;1.10;;
10295;SDS011;5193;51.032;6.356;2024-02-15T13:47:54;3.10;;;1.30;;
10295;SDS011;5193;51.032;6.356;2024-02-15T13:50:21;3.17;;;1.00;;
10295;SDS011;5193;51.032;6.356;2024-02-15T13:52:47;2.97;;;0.80;;
10295;SDS011;5193;51.032;6.356;2024-02-15T13:55:16;4.70;;;1.00;;
10295;SDS011;5193;51.032;6.356;2024-02-15T13:57:45;6.17;;;1.27;;
10295;SDS011;5193;51.032;6.356;2024-02-15T14:00:12;4.13;;;1.00;;
10295;SDS011;5193;51.032;6.356;2024-02-15T14:02:51;2.60;;;0.87;;
10295;SDS011;5193;51.032;6.356;2024-02-15T14:05:24;2.67;;;1.00;;
10295;SDS011;5193;51.032;6.356;2024-02-15T14:07:54;2.13;;;1.10;;
10295;SDS011;5193;51.032;6.356;2024-02-15T14:10:21;4.70;;;1.00;;
10295;SDS011;5193;51.032;6.356;2024-02-15T14:12:48;3.57;;;0.90;;
10295;SDS011;5193;51.032;6.356;2024-02-15T14:15:16;4.87;;;0.83;;
10295;SDS011;5193;51.032;6.356;2024-02-15T14:17:42;3.90;;;1.00;;
10295;SDS011;5193;51.032;6.356;2024-02-15T14:20:12;4.43;;;0.70;;
10295;SDS011;5193;51.032;6.356;2024-02-15T14:22:46;1.33;;;0.80;;
10295;SDS011;5193;51.032;6.356;2024-02-15T14:25:20;1.73;;;0.70;;
10295;SDS011;5193;51.032;6.356;2024-02-15T14:27:47;2.30;;;0.77;;
10295;SDS011;5193;51.032;6.356;2024-02-15T14:30:14;2.03;;;0.97;;
10295;SDS011;5193;51.032;6.356;2024-02-15T14:33:00;5.73;;;1.17;;
10295;SDS011;5193;51.032;6.356;2024-02-15T14:35:28;5.93;;;0.93;;
10295;SDS011;5193;51.032;6.356;2024-02-15T14:38:06;4.03;;;0.63;;
10295;SDS011;5193;51.032;6.356;2024-02-15T14:40:36;1.53;;;0.77;;
10295;SDS011;5193;51.032;6.356;2024-02-15T14:43:06;6.10;;;1.00;;
10295;SDS011;5193;51.032;6.356;2024-02-15T14:45:33;5.57;;;1.33;;
10295;SDS011;5193;51.032;6.356;2024-02-15T14:47:59;4.50;;;1.03;;
10295;SDS011;5193;51.032;6.356;2024-02-15T14:50:25;3.03;;;1.03;;
10295;SDS011;5193;51.032;6.356;2024-02-15T14:52:51;2.43;;;0.87;;
10295;SDS011;5193;51.032;6.356;2024-02-15T14:55:18;6.80;;;1.30;;
10295;SDS011;5193;51.032;6.356;2024-02-15T14:57:44;2.37;;;0.70;;
10295;SDS011;5193;51.032;6.356;2024-02-15T15:00:11;3.17;;;1.20;;
10295;SDS011;5193;51.032;6.356;2024-02-15T15:02:42;3.80;;;0.90;;
10295;SDS011;5193;51.032;6.356;2024-02-15T15:05:12;8.60;;;0.90;;
10295;SDS011;5193;51.032;6.356;2024-02-15T15:07:57;1.53;;;0.90;;
10295;SDS011;5193;51.032;6.356;2024-02-15T15:10:41;5.33;;;0.87;;
10295;SDS011;5193;51.032;6.356;2024-02-15T15:13:28;2.53;;;1.07;;
10295;SDS011;5193;51.032;6.356;2024-02-15T15:15:54;1.40;;;0.70;;
10295;SDS011;5193;51.032;6.356;2024-02-15T15:18:19;5.53;;;0.90;;
10295;SDS011;5193;51.032;6.356;2024-02-15T15:20:46;3.90;;;1.00;;
10295;SDS011;5193;51.032;6.356;2024-02-15T15:23:12;5.30;;;1.00;;
10295;SDS011;5193;51.032;6.356;2024-02-15T15:25:40;2.97;;;1.03;;